Time;durP1;ratioP1;P1;durP2;ratioP2;P2;SDS_P1;SDS_P2;PMS_P1;PMS_P2;Temp;Humidity;BMP_temperature;BMP_pressure;BME280_temperature;BME280_humidity;BME280_pressure;Samples;Min_cycle;Max_cycle;Signal;HPM_P1;HPM_P2
2024/02/07 05:15:41;;;;;;;19.80;1.65;;;5.30;99.90;;;;;;4966125;28;20211;-72
2024/02/07 05:18:09;;;;;;;2.42;0.95;;;5.30;99.90;;;;;;4966373;28;20659;-70
2024/02/07 05:20:36;;;;;;;0.32;0.32;;;5.30;99.90;;;;;;4965174;28;20232;-70
2024/02/07 05:23:03;;;;;;;8.57;0.70;;;5.20;99.90;;;;;;4972727;28;20219;-70
2024/02/07 05:25:32;;;;;;;11.73;1.50;;;5.20;99.90;;;;;;4971807;28;20213;-70
2024/02/07 05:27:59;;;;;;;0.60;0.60;;;5.20;99.90;;;;;;4972770;28;20276;-71
2024/02/07 05:30:26;;;;;;;0.20;0.20;;;5.20;99.90;;;;;;4974849;28;20672;-71
2024/02/07 05:32:52;;;;;;;1.30;0.55;;;5.20;99.90;;;;;;4970899;28;20577;-71
2024/02/07 05:35:20;;;;;;;2.30;0.63;;;5.20;99.90;;;;;;4972991;28;20213;-71
2024/02/07 05:37:48;;;;;;;0.82;0.82;;;5.10;99.90;;;;;;4970743;28;20205;-71
2024/02/07 05:40:15;;;;;;;4.88;1.10;;;5.10;99.90;;;;;;4972893;28;20712;-71
2024/02/07 05:42:42;;;;;;;5.10;0.65;;;5.10;99.90;;;;;;4972265;28;20215;-71
2024/02/07 05:45:09;;;;;;;5.47;1.38;;;5.10;99.90;;;;;;4973100;28;20300;-71
2024/02/07 05:47:36;;;;;;;3.08;0.85;;;5.10;99.90;;;;;;4973688;28;20659;-71
2024/02/07 05:50:03;;;;;;;3.25;0.95;;;5.10;99.90;;;;;;4975622;28;20197;-71
2024/02/07 05:52:31;;;;;;;1.25;0.55;;;5.10;99.90;;;;;;4973666;28;20224;-72
2024/02/07 05:54:58;;;;;;;9.50;1.27;;;5.10;99.90;;;;;;4975253;28;20212;-72
2024/02/07 05:57:25;;;;;;;1.92;1.15;;;5.10;99.90;;;;;;4972114;28;20230;-72
2024/02/07 05:59:51;;;;;;;2.17;0.75;;;5.00;99.90;;;;;;4971924;28;20224;-71
2024/02/07 06:02:18;;;;;;;0.90;0.70;;;5.00;99.90;;;;;;4967604;28;20240;-71
2024/02/07 06:04:49;;;;;;;8.65;0.85;;;5.00;99.90;;;;;;4970655;28;20211;-71
2024/02/07 06:07:18;;;;;;;6.72;0.80;;;5.00;99.90;;;;;;4972391;28;20211;-71
2024/02/07 06:09:46;;;;;;;1.95;1.02;;;5.00;99.90;;;;;;4972348;28;20295;-70
2024/02/07 06:12:15;;;;;;;3.55;1.20;;;5.00;99.90;;;;;;4970787;28;20224;-70
2024/02/07 06:14:42;;;;;;;1.90;0.57;;;5.00;99.90;;;;;;4971669;28;20216;-71
2024/02/07 06:17:09;;;;;;;1.17;1.17;;;5.00;99.90;;;;;;4970669;28;20667;-71
2024/02/07 06:19:36;;;;;;;2.83;0.50;;;4.90;99.90;;;;;;4971474;28;20237;-71
2024/02/07 06:22:02;;;;;;;8.07;1.02;;;4.90;99.90;;;;;;4971260;28;20221;-71
2024/02/07 06:24:29;;;;;;;0.40;0.40;;;4.90;99.90;;;;;;4969353;28;20643;-71
2024/02/07 06:26:57;;;;;;;3.35;0.95;;;4.90;99.90;;;;;;4972070;28;20213;-71
2024/02/07 06:29:24;;;;;;;7.18;1.27;;;4.90;99.90;;;;;;4971330;28;20537;-70
2024/02/07 06:31:51;;;;;;;1.75;1.13;;;4.90;99.90;;;;;;4971028;28;20220;-70
2024/02/07 06:34:17;;;;;;;2.88;1.55;;;4.90;99.90;;;;;;4971157;28;20205;-70
2024/02/07 06:36:44;;;;;;;5.30;1.08;;;4.90;99.90;;;;;;4971497;28;20204;-71
2024/02/07 06:39:11;;;;;;;6.28;0.95;;;4.80;99.90;;;;;;4969540;28;20211;-70
2024/02/07 06:41:38;;;;;;;3.90;0.85;;;4.80;99.90;;;;;;4969135;28;20630;-72
2024/02/07 06:44:06;;;;;;;0.65;0.28;;;4.80;99.90;;;;;;4972150;28;20205;-71
2024/02/07 06:46:32;;;;;;;1.27;0.95;;;4.70;99.90;;;;;;4971259;28;20219;-71
2024/02/07 06:48:59;;;;;;;0.80;0.50;;;4.70;99.90;;;;;;4970352;28;20596;-70
2024/02/07 06:51:26;;;;;;;3.70;1.00;;;4.70;99.90;;;;;;4971537;28;20225;-71
2024/02/07 06:53:52;;;;;;;1.98;0.98;;;4.60;99.90;;;;;;4970336;28;20312;-71
2024/02/07 06:56:19;;;;;;;0.60;0.60;;;4.70;99.90;;;;;;4970076;28;20683;-71
2024/02/07 06:58:46;;;;;;;2.40;1.05;;;4.70;99.90;;;;;;4967798;28;20201;-71
2024/02/07 07:01:14;;;;;;;5.40;0.80;;;4.60;99.90;;;;;;4965606;28;20225;-71
2024/02/07 07:03:42;;;;;;;0.65;0.65;;;4.70;99.90;;;;;;4970883;28;20634;-71
2024/02/07 07:06:08;;;;;;;0.68;0.68;;;4.70;99.90;;;;;;4972339;28;20235;-71
2024/02/07 07:08:35;;;;;;;4.82;1.70;;;4.70;99.90;;;;;;4963378;28;20216;-71
2024/02/07 07:11:02;;;;;;;1.38;0.82;;;4.70;99.90;;;;;;4970298;28;20221;-71
2024/02/07 07:13:28;;;;;;;2.85;1.13;;;4.70;99.90;;;;;;4967677;28;20219;-71
2024/02/07 07:15:55;;;;;;;5.63;0.88;;;4.70;99.90;;;;;;4970848;28;20208;-71
2024/02/07 07:18:23;;;;;;;0.75;0.73;;;4.70;99.90;;;;;;4967298;28;21058;-70
2024/02/07 07:20:50;;;;;;;3.70;1.02;;;4.60;99.90;;;;;;4968791;28;20240;-71
2024/02/07 07:23:16;;;;;;;3.10;0.60;;;4.60;99.90;;;;;;4968231;28;20219;-70
2024/02/07 07:25:43;;;;;;;1.05;1.05;;;4.60;99.90;;;;;;4970843;28;20204;-71
2024/02/07 07:28:10;;;;;;;0.32;0.30;;;4.60;99.90;;;;;;4965580;28;20275;-70
2024/02/07 07:30:38;;;;;;;3.95;1.20;;;4.60;99.90;;;;;;4971050;28;20231;-72
2024/02/07 07:33:05;;;;;;;3.28;0.73;;;4.60;99.90;;;;;;4970872;28;20213;-70
2024/02/07 07:35:33;;;;;;;1.90;1.20;;;4.60;99.90;;;;;;4971201;28;20220;-70
2024/02/07 07:38:03;;;;;;;4.75;1.10;;;4.60;99.90;;;;;;4960547;28;20208;-70
2024/02/07 07:40:30;;;;;;;6.68;1.88;;;4.70;99.90;;;;;;4968594;28;20244;-70
2024/02/07 07:42:57;;;;;;;4.88;1.00;;;4.60;99.90;;;;;;4967905;28;20584;-70
2024/02/07 07:45:24;;;;;;;2.38;1.95;;;4.60;99.90;;;;;;4966128;28;20295;-70
2024/02/07 07:47:50;;;;;;;3.03;0.80;;;4.50;99.90;;;;;;4967222;28;20667;-70
2024/02/07 07:50:17;;;;;;;1.30;1.30;;;4.50;99.90;;;;;;4969912;28;20200;-71
2024/02/07 07:52:45;;;;;;;7.55;1.55;;;4.50;99.90;;;;;;4966997;28;20236;-71
2024/02/07 07:55:12;;;;;;;7.38;2.05;;;4.50;99.90;;;;;;4969972;28;20330;-70
2024/02/07 07:57:38;;;;;;;5.35;1.27;;;4.50;99.90;;;;;;4966983;28;20209;-70
2024/02/07 08:00:06;;;;;;;1.75;0.95;;;4.50;99.90;;;;;;4966063;28;20224;-70
2024/02/07 08:02:33;;;;;;;5.65;1.92;;;4.50;99.90;;;;;;4967101;28;20590;-71
2024/02/07 08:05:00;;;;;;;2.60;1.65;;;4.60;99.90;;;;;;4961883;28;20303;-70
2024/02/07 08:07:26;;;;;;;4.13;1.83;;;4.60;99.90;;;;;;4966462;28;20212;-70
2024/02/07 08:09:54;;;;;;;4.43;2.53;;;4.60;99.90;;;;;;4966770;28;20204;-69
2024/02/07 08:12:21;;;;;;;0.70;0.70;;;4.60;99.90;;;;;;4967985;28;20224;-69
2024/02/07 08:14:48;;;;;;;8.80;2.15;;;4.60;99.90;;;;;;4969557;28;20208;-70
2024/02/07 08:17:18;;;;;;;7.75;1.63;;;4.60;99.90;;;;;;4964328;28;20671;-71
2024/02/07 08:19:45;;;;;;;13.05;2.60;;;4.70;99.90;;;;;;4970730;28;20223;-70
2024/02/07 08:22:14;;;;;;;5.25;1.33;;;4.70;99.90;;;;;;4970196;28;20247;-69
2024/02/07 08:24:41;;;;;;;1.23;0.80;;;4.70;99.90;;;;;;4970885;28;20204;-70
2024/02/07 08:27:09;;;;;;;2.40;0.90;;;4.70;99.90;;;;;;4969397;28;20212;-70
2024/02/07 08:29:35;;;;;;;2.25;1.02;;;4.70;99.90;;;;;;4971732;28;20212;-71
2024/02/07 08:32:02;;;;;;;6.35;1.05;;;4.70;99.90;;;;;;4964785;28;20240;-70
2024/02/07 08:34:29;;;;;;;1.42;1.33;;;4.70;99.90;;;;;;4969314;28;20216;-70
2024/02/07 08:36:56;;;;;;;3.20;0.95;;;4.60;99.90;;;;;;4970768;28;20856;-70
2024/02/07 08:39:23;;;;;;;5.20;2.55;;;4.60;99.90;;;;;;4970848;28;20216;-70
2024/02/07 08:41:50;;;;;;;4.10;3.15;;;4.60;99.90;;;;;;4970960;28;20601;-70
2024/02/07 08:44:18;;;;;;;2.50;1.10;;;4.60;99.90;;;;;;4971370;28;20209;-70
2024/02/07 08:46:47;;;;;;;3.05;0.88;;;4.70;99.90;;;;;;4970005;28;20311;-70
2024/02/07 08:49:16;;;;;;;3.50;1.52;;;4.60;99.90;;;;;;4971242;28;20660;-70
2024/02/07 08:51:43;;;;;;;0.98;0.98;;;4.70;99.90;;;;;;4968957;28;20229;-70
2024/02/07 08:54:10;;;;;;;3.13;1.50;;;4.70;99.90;;;;;;4969967;28;20208;-70
2024/02/07 08:56:37;;;;;;;4.97;0.80;;;4.70;99.90;;;;;;4969759;28;20259;-70
2024/02/07 08:59:04;;;;;;;2.55;0.85;;;4.80;99.90;;;;;;4971146;28;20216;-70
2024/02/07 09:01:32;;;;;;;4.10;0.90;;;5.20;99.90;;;;;;4962612;28;20280;-71
2024/02/07 09:03:59;;;;;;;2.15;0.82;;;5.60;99.90;;;;;;4964713;28;20236;-70
2024/02/07 09:06:25;;;;;;;6.30;1.95;;;5.90;99.90;;;;;;4962242;28;20664;-70
2024/02/07 09:08:52;;;;;;;5.20;1.27;;;6.10;99.90;;;;;;4965299;28;20212;-70
2024/02/07 09:11:19;;;;;;;2.25;1.73;;;6.20;99.90;;;;;;4957522;28;20252;-70
2024/02/07 09:13:45;;;;;;;0.70;0.70;;;6.20;99.90;;;;;;4960589;28;20237;-70
2024/02/07 09:16:12;;;;;;;3.70;0.55;;;6.20;99.90;;;;;;4965533;28;20215;-70
2024/02/07 09:18:40;;;;;;;2.17;1.00;;;6.10;99.90;;;;;;4968536;28;20225;-70
2024/02/07 09:21:07;;;;;;;3.03;0.82;;;6.00;99.90;;;;;;4968860;28;20221;-70
2024/02/07 09:23:33;;;;;;;2.40;0.82;;;5.90;99.90;;;;;;4959596;28;20210;-70
2024/02/07 09:26:00;;;;;;;5.18;1.48;;;5.80;99.90;;;;;;4967551;28;20206;-70
2024/02/07 09:28:27;;;;;;;3.83;1.77;;;5.70;99.90;;;;;;4970510;28;20715;-70
2024/02/07 09:30:54;;;;;;;1.48;1.10;;;5.70;99.90;;;;;;4970849;28;20844;-70
2024/02/07 09:33:21;;;;;;;0.50;0.50;;;5.70;99.90;;;;;;4971064;28;20218;-70
2024/02/07 09:35:49;;;;;;;8.93;3.30;;;5.70;99.90;;;;;;4965021;28;20659;-70
2024/02/07 09:38:16;;;;;;;2.40;1.30;;;5.70;99.90;;;;;;4969053;28;20708;-70
2024/02/07 09:40:43;;;;;;;2.33;1.88;;;5.70;99.90;;;;;;4965830;28;20232;-71
2024/02/07 09:43:11;;;;;;;3.15;0.93;;;5.70;99.90;;;;;;4967501;28;20209;-70
2024/02/07 09:45:42;;;;;;;2.13;1.90;;;5.80;99.90;;;;;;4970241;28;20209;-70
2024/02/07 09:48:19;;;;;;;1.80;1.70;;;5.70;99.90;;;;;;4963472;28;20203;-68
2024/02/07 09:50:50;;;;;;;2.22;0.93;;;5.80;99.90;;;;;;4966550;28;20225;-69
2024/02/07 09:53:18;;;;;;;5.18;1.85;;;5.80;99.90;;;;;;4964376;28;20348;-69
2024/02/07 09:55:46;;;;;;;8.20;0.90;;;5.80;99.90;;;;;;4966490;28;20700;-72
2024/02/07 09:58:14;;;;;;;3.63;1.35;;;5.80;99.90;;;;;;4969207;28;20206;-68
2024/02/07 10:00:40;;;;;;;3.58;1.42;;;5.80;99.90;;;;;;4969230;28;20241;-68
2024/02/07 10:03:11;;;;;;;8.55;1.77;;;5.80;99.90;;;;;;4969730;28;20202;-68
2024/02/07 10:05:40;;;;;;;1.48;0.95;;;5.90;99.90;;;;;;4969944;28;20297;-72
2024/02/07 10:08:10;;;;;;;14.32;2.28;;;5.90;99.90;;;;;;4966255;28;20210;-71
2024/02/07 10:10:37;;;;;;;4.20;2.05;;;5.90;99.90;;;;;;4964391;28;20266;-68
2024/02/07 10:13:04;;;;;;;12.88;1.95;;;5.90;99.90;;;;;;4970293;28;20207;-69
2024/02/07 10:15:32;;;;;;;3.58;1.80;;;5.90;99.90;;;;;;4972895;28;20210;-73
2024/02/07 10:18:00;;;;;;;5.32;1.58;;;5.90;99.90;;;;;;4969426;28;20673;-67
2024/02/07 10:20:27;;;;;;;6.55;1.73;;;5.90;99.90;;;;;;4965579;28;20211;-69
2024/02/07 10:22:54;;;;;;;9.27;2.05;;;6.00;99.90;;;;;;4964577;28;20654;-70
2024/02/07 10:25:23;;;;;;;5.75;1.95;;;6.00;99.90;;;;;;4960446;28;20210;-69
2024/02/07 10:27:50;;;;;;;0.90;0.88;;;6.00;99.90;;;;;;4963207;28;20219;-68
2024/02/07 10:30:17;;;;;;;1.75;0.77;;;5.90;99.90;;;;;;4966295;28;20452;-68
2024/02/07 10:32:45;;;;;;;4.13;0.77;;;5.90;99.90;;;;;;4961872;28;20268;-68
2024/02/07 10:35:11;;;;;;;1.05;0.65;;;5.90;99.90;;;;;;4966044;28;20222;-70
2024/02/07 10:37:41;;;;;;;16.85;1.35;;;5.90;99.90;;;;;;4968137;28;20209;-71
2024/02/07 10:40:10;;;;;;;4.15;2.22;;;5.90;99.90;;;;;;4971588;28;20236;-71
2024/02/07 10:42:39;;;;;;;2.05;1.95;;;5.90;99.90;;;;;;4971263;28;20892;-68
2024/02/07 10:45:08;;;;;;;5.25;1.67;;;5.90;99.90;;;;;;4964874;28;20234;-67
2024/02/07 10:47:36;;;;;;;7.43;2.15;;;6.00;99.90;;;;;;4966470;28;20213;-73
2024/02/07 10:50:03;;;;;;;4.97;2.30;;;5.90;99.90;;;;;;4966931;28;20212;-71
2024/02/07 10:52:30;;;;;;;3.40;1.58;;;6.00;99.90;;;;;;4971615;28;20233;-68
2024/02/07 10:54:57;;;;;;;4.88;4.30;;;6.00;99.90;;;;;;4962802;28;20225;-66
2024/02/07 10:57:28;;;;;;;9.48;3.78;;;6.00;99.90;;;;;;4967575;28;20214;-68
2024/02/07 10:59:56;;;;;;;4.07;1.00;;;6.00;99.90;;;;;;4969675;28;20258;-70
2024/02/07 11:02:25;;;;;;;3.05;1.13;;;6.00;99.90;;;;;;4968453;28;20760;-68
2024/02/07 11:04:52;;;;;;;6.75;1.10;;;6.00;99.90;;;;;;4966276;28;20285;-67
2024/02/07 11:07:20;;;;;;;1.00;1.00;;;6.00;99.90;;;;;;4963231;28;20218;-69
2024/02/07 11:09:47;;;;;;;3.00;0.98;;;6.00;99.90;;;;;;4968855;28;20242;-69
2024/02/07 11:12:15;;;;;;;3.47;1.85;;;6.10;99.90;;;;;;4966285;28;20223;-71
2024/02/07 11:14:45;;;;;;;3.33;1.20;;;6.20;99.90;;;;;;4964478;28;20686;-67
2024/02/07 11:17:13;;;;;;;2.25;1.52;;;6.10;99.90;;;;;;4967576;28;20237;-67
2024/02/07 11:19:41;;;;;;;3.13;2.38;;;6.10;99.90;;;;;;4971213;28;20239;-68
2024/02/07 11:22:13;;;;;;;2.65;2.20;;;6.10;99.90;;;;;;4966340;28;20222;-69
2024/02/07 11:24:41;;;;;;;3.97;0.85;;;6.10;99.90;;;;;;4966938;28;20217;-68
2024/02/07 11:27:10;;;;;;;2.28;1.33;;;6.10;99.90;;;;;;4969564;28;20208;-68
2024/02/07 11:29:37;;;;;;;2.70;1.50;;;6.10;99.90;;;;;;4971945;28;20215;-69
2024/02/07 11:32:06;;;;;;;1.65;0.77;;;6.20;99.90;;;;;;4971586;28;20233;-69
2024/02/07 11:34:37;;;;;;;2.67;1.33;;;6.20;99.90;;;;;;4971569;28;20681;-68
2024/02/07 11:37:05;;;;;;;2.72;1.35;;;6.10;99.90;;;;;;4961810;28;20863;-69
2024/02/07 11:39:38;;;;;;;3.30;1.05;;;6.10;99.90;;;;;;4961571;28;20215;-69
2024/02/07 11:42:13;;;;;;;0.70;0.70;;;6.10;99.90;;;;;;4964185;28;20235;-68
2024/02/07 11:44:53;;;;;;;6.15;1.90;;;6.20;99.90;;;;;;4970945;28;20269;-67
2024/02/07 11:47:26;;;;;;;6.22;1.00;;;6.20;99.90;;;;;;4966348;28;20689;-71
2024/02/07 11:49:57;;;;;;;1.40;1.10;;;6.30;99.90;;;;;;4969824;28;20220;-68
2024/02/07 11:52:29;;;;;;;3.13;1.60;;;6.30;99.90;;;;;;4961351;28;20233;-67
2024/02/07 11:55:01;;;;;;;0.93;0.50;;;6.30;99.90;;;;;;4971293;28;20241;-67
2024/02/07 11:57:28;;;;;;;12.15;3.85;;;6.40;99.90;;;;;;4971934;28;20216;-70
2024/02/07 11:59:55;;;;;;;2.05;1.30;;;6.40;99.90;;;;;;4971409;28;21108;-68
2024/02/07 12:02:23;;;;;;;9.40;1.40;;;6.30;99.90;;;;;;4969760;28;20238;-70
2024/02/07 12:04:50;;;;;;;1.75;1.10;;;6.40;99.90;;;;;;4963345;28;20218;-69
2024/02/07 12:07:18;;;;;;;1.77;1.52;;;6.40;99.90;;;;;;4965762;28;20219;-67
2024/02/07 12:09:46;;;;;;;3.38;2.33;;;6.40;99.90;;;;;;4965522;28;20208;-67
2024/02/07 12:12:13;;;;;;;1.08;1.08;;;6.40;99.90;;;;;;4967555;28;20231;-68
2024/02/07 12:14:40;;;;;;;1.90;0.68;;;6.40;99.90;;;;;;4968265;28;20700;-68
2024/02/07 12:17:07;;;;;;;5.35;1.90;;;6.50;99.90;;;;;;4968506;28;20211;-68
2024/02/07 12:19:36;;;;;;;3.22;3.13;;;6.50;99.90;;;;;;4969763;28;20214;-69
2024/02/07 12:22:03;;;;;;;0.55;0.50;;;6.60;99.90;;;;;;4959363;28;20235;-70
2024/02/07 12:24:32;;;;;;;1.85;0.40;;;6.60;99.90;;;;;;4969294;28;20224;-69
2024/02/07 12:27:07;;;;;;;1.48;0.77;;;6.50;99.90;;;;;;4964166;28;20243;-70
2024/02/07 12:29:34;;;;;;;3.03;1.63;;;6.40;99.90;;;;;;4970736;28;20614;-70
2024/02/07 12:32:01;;;;;;;0.40;0.40;;;6.40;99.90;;;;;;4969798;28;20231;-70
2024/02/07 12:34:28;;;;;;;1.17;1.17;;;6.40;99.90;;;;;;4970804;28;20215;-69
2024/02/07 12:36:55;;;;;;;2.88;1.67;;;6.30;99.90;;;;;;4968283;28;20255;-69
2024/02/07 12:39:22;;;;;;;1.30;0.40;;;6.30;99.90;;;;;;4965106;28;20215;-69
2024/02/07 12:41:50;;;;;;;3.80;1.15;;;6.30;99.90;;;;;;4969805;28;20267;-70
2024/02/07 12:44:17;;;;;;;1.75;0.70;;;6.30;99.90;;;;;;4970688;28;20214;-69
2024/02/07 12:46:44;;;;;;;0.90;0.90;;;6.30;99.90;;;;;;4965377;28;20226;-69
2024/02/07 12:49:11;;;;;;;5.20;1.85;;;6.40;99.90;;;;;;4971045;28;20242;-70
2024/02/07 12:51:38;;;;;;;1.10;0.77;;;6.30;99.90;;;;;;4968865;28;20254;-69
2024/02/07 12:54:05;;;;;;;5.72;0.95;;;6.40;99.90;;;;;;4966682;28;20574;-70
2024/02/07 12:56:32;;;;;;;1.00;0.90;;;6.40;99.90;;;;;;4962680;28;20212;-70
2024/02/07 12:59:00;;;;;;;1.77;0.80;;;6.30;99.90;;;;;;4969604;28;20222;-71
2024/02/07 13:01:27;;;;;;;0.35;0.35;;;6.20;99.90;;;;;;4970563;28;20266;-68
2024/02/07 13:03:54;;;;;;;2.60;1.20;;;6.30;99.90;;;;;;4967449;28;20223;-70
2024/02/07 13:06:21;;;;;;;5.18;1.33;;;6.20;99.90;;;;;;4966950;28;20596;-68
2024/02/07 13:08:48;;;;;;;1.27;1.02;;;6.10;99.90;;;;;;4966770;28;20206;-69
2024/02/07 13:11:15;;;;;;;2.05;0.75;;;6.10;99.90;;;;;;4969572;28;20652;-70
2024/02/07 13:13:42;;;;;;;0.90;0.88;;;6.10;99.90;;;;;;4969165;28;20201;-69
2024/02/07 13:16:10;;;;;;;3.60;1.55;;;6.10;99.90;;;;;;4966363;28;20205;-69
2024/02/07 13:18:37;;;;;;;0.30;0.30;;;6.10;99.90;;;;;;4967487;28;20216;-69
2024/02/07 13:21:06;;;;;;;2.30;0.82;;;6.10;99.90;;;;;;4967439;28;20611;-68
2024/02/07 13:23:33;;;;;;;1.65;1.30;;;6.10;99.90;;;;;;4971225;28;20230;-70
2024/02/07 13:26:00;;;;;;;3.05;0.50;;;6.10;99.90;;;;;;4966747;28;20249;-69
2024/02/07 13:28:27;;;;;;;3.88;1.70;;;6.10;99.90;;;;;;4969618;28;20219;-69
2024/02/07 13:30:54;;;;;;;1.83;1.70;;;6.10;99.90;;;;;;4969297;28;20234;-70
2024/02/07 13:33:22;;;;;;;9.80;1.33;;;6.20;99.90;;;;;;4970450;28;20225;-69
2024/02/07 13:35:48;;;;;;;0.82;0.52;;;6.50;99.90;;;;;;4969186;28;20215;-69
2024/02/07 13:38:15;;;;;;;5.28;1.70;;;6.20;99.90;;;;;;4969494;28;20213;-69
2024/02/07 13:40:42;;;;;;;2.13;1.70;;;6.20;99.90;;;;;;4970325;28;20233;-69
2024/02/07 13:43:08;;;;;;;1.95;1.50;;;6.20;99.90;;;;;;4965596;28;20217;-69
2024/02/07 13:45:35;;;;;;;6.63;1.00;;;6.20;99.90;;;;;;4973826;28;20210;-69
2024/02/07 13:48:02;;;;;;;3.28;1.00;;;6.20;99.90;;;;;;4974186;28;20217;-70
2024/02/07 13:50:30;;;;;;;2.58;1.05;;;6.30;99.90;;;;;;4972445;28;20219;-69
2024/02/07 13:52:56;;;;;;;2.65;1.73;;;6.30;99.90;;;;;;4974393;28;20209;-69
2024/02/07 13:55:23;;;;;;;2.88;0.85;;;6.20;99.90;;;;;;4975003;28;20218;-69
2024/02/07 13:57:50;;;;;;;2.47;0.55;;;6.20;99.90;;;;;;4972470;28;20217;-69
2024/02/07 14:00:18;;;;;;;1.98;0.63;;;6.30;99.90;;;;;;4972008;28;20213;-69
2024/02/07 14:02:44;;;;;;;3.08;1.42;;;6.20;99.90;;;;;;4972256;28;20223;-69
2024/02/07 14:05:12;;;;;;;1.10;0.60;;;6.20;99.90;;;;;;4965331;28;20223;-69
2024/02/07 14:07:40;;;;;;;2.92;1.48;;;6.30;99.90;;;;;;4964067;28;20207;-69
2024/02/07 14:10:08;;;;;;;3.65;0.73;;;6.30;99.90;;;;;;4964380;28;20638;-69
2024/02/07 14:12:34;;;;;;;1.95;1.70;;;6.20;99.90;;;;;;4965624;28;20224;-70
2024/02/07 14:15:01;;;;;;;1.08;1.00;;;6.10;99.90;;;;;;4970032;28;20209;-69
2024/02/07 14:17:28;;;;;;;2.88;0.70;;;7.00;99.90;;;;;;4968773;28;20231;-69
2024/02/07 14:19:55;;;;;;;0.70;0.70;;;5.90;99.90;;;;;;4970855;28;20207;-68
2024/02/07 14:22:21;;;;;;;9.48;1.15;;;5.90;99.90;;;;;;4971927;28;20229;-68
2024/02/07 14:24:49;;;;;;;0.75;0.75;;;5.80;99.90;;;;;;4970838;28;20212;-68
2024/02/07 14:27:16;;;;;;;4.00;0.80;;;5.70;99.90;;;;;;4971953;28;20236;-68
2024/02/07 14:29:42;;;;;;;5.85;2.67;;;5.70;99.90;;;;;;4972273;28;20209;-68
2024/02/07 14:32:09;;;;;;;2.53;1.67;;;5.70;99.90;;;;;;4970046;28;20228;-68
2024/02/07 14:34:36;;;;;;;1.42;1.38;;;5.60;99.90;;;;;;4971122;28;20213;-69
2024/02/07 14:37:04;;;;;;;3.22;0.55;;;5.60;99.90;;;;;;4971455;28;20224;-69
2024/02/07 14:39:31;;;;;;;2.45;1.63;;;5.60;99.90;;;;;;4969435;28;20212;-70
2024/02/07 14:41:59;;;;;;;2.05;1.05;;;5.50;99.90;;;;;;4970992;28;20744;-70
2024/02/07 14:44:26;;;;;;;1.30;1.20;;;5.50;99.90;;;;;;4970043;28;20217;-69
2024/02/07 14:46:52;;;;;;;0.85;0.85;;;5.50;99.90;;;;;;4964772;28;20205;-69
2024/02/07 14:49:20;;;;;;;6.38;1.48;;;5.40;99.90;;;;;;4969221;28;20213;-69
2024/02/07 14:51:47;;;;;;;2.80;2.50;;;5.40;99.90;;;;;;4967229;28;24696;-70
2024/02/07 14:54:15;;;;;;;1.70;1.38;;;5.40;99.90;;;;;;4959285;28;20676;-70
2024/02/07 14:56:42;;;;;;;19.45;3.70;;;5.40;99.90;;;;;;4965736;28;20225;-70
2024/02/07 14:59:10;;;;;;;2.92;2.72;;;5.30;99.90;;;;;;4967057;28;20245;-69
2024/02/07 15:01:36;;;;;;;2.97;1.15;;;5.20;99.90;;;;;;4968457;28;20244;-69
2024/02/07 15:04:03;;;;;;;0.93;0.93;;;5.20;99.90;;;;;;4964291;28;20833;-69
2024/02/07 15:06:30;;;;;;;0.70;0.70;;;5.10;99.90;;;;;;4968662;28;20205;-70
2024/02/07 15:08:56;;;;;;;1.50;1.40;;;5.10;99.90;;;;;;4967776;28;20204;-69
2024/02/07 15:11:23;;;;;;;0.65;0.63;;;5.10;99.90;;;;;;4971209;28;20225;-69
2024/02/07 15:13:50;;;;;;;3.70;1.27;;;5.10;99.90;;;;;;4967495;28;20209;-70
2024/02/07 15:16:18;;;;;;;5.75;1.10;;;5.00;99.90;;;;;;4963167;28;20209;-70
2024/02/07 15:18:44;;;;;;;4.43;2.03;;;5.00;99.90;;;;;;4965963;28;20208;-70
2024/02/07 15:21:11;;;;;;;0.73;0.73;;;5.00;99.90;;;;;;4965888;28;20240;-69
2024/02/07 15:23:38;;;;;;;6.60;0.98;;;4.90;99.90;;;;;;4969804;28;20288;-69
2024/02/07 15:26:05;;;;;;;3.53;2.10;;;4.90;99.90;;;;;;4969852;28;20214;-69
2024/02/07 15:28:32;;;;;;;1.83;1.67;;;4.80;99.90;;;;;;4968796;28;20213;-70
2024/02/07 15:30:58;;;;;;;1.38;1.00;;;4.80;99.90;;;;;;4966096;28;20228;-70
2024/02/07 15:33:32;;;;;;;3.25;1.00;;;4.70;99.90;;;;;;4963301;28;20256;-70
2024/02/07 15:35:59;;;;;;;5.97;1.70;;;4.70;99.90;;;;;;4971101;28;20298;-70
2024/02/07 15:38:26;;;;;;;11.43;1.95;;;4.70;99.90;;;;;;4968307;28;20730;-70
2024/02/07 15:40:53;;;;;;;2.05;1.80;;;4.70;99.90;;;;;;4957427;28;20224;-70
2024/02/07 15:43:20;;;;;;;4.32;1.83;;;4.60;99.90;;;;;;4961586;28;20228;-68
2024/02/07 15:45:47;;;;;;;2.28;1.35;;;4.60;99.90;;;;;;4966403;28;20205;-70
2024/02/07 15:48:14;;;;;;;1.15;1.15;;;4.60;99.90;;;;;;4970263;28;20217;-70
2024/02/07 15:50:42;;;;;;;1.23;1.17;;;4.50;99.90;;;;;;4966112;28;20304;-70
2024/02/07 15:53:08;;;;;;;2.00;1.90;;;4.50;99.90;;;;;;4969169;28;20211;-69
2024/02/07 15:55:36;;;;;;;4.85;2.50;;;4.40;99.90;;;;;;4967432;28;20223;-69
2024/02/07 15:58:02;;;;;;;3.13;1.20;;;4.40;99.90;;;;;;4965221;28;20208;-68
2024/02/07 16:00:29;;;;;;;7.05;1.50;;;4.30;99.90;;;;;;4968507;28;20239;-68
2024/02/07 16:02:56;;;;;;;4.00;1.48;;;4.30;99.90;;;;;;4967489;28;20251;-69
2024/02/07 16:05:23;;;;;;;2.85;2.65;;;4.20;99.90;;;;;;4968517;28;20208;-69
2024/02/07 16:07:51;;;;;;;3.67;2.65;;;4.20;99.90;;;;;;4969988;28;20208;-70
2024/02/07 16:10:17;;;;;;;5.15;2.53;;;4.20;99.90;;;;;;4963241;28;20209;-70
2024/02/07 16:12:46;;;;;;;4.20;3.10;;;4.10;99.90;;;;;;4969177;28;20204;-69
2024/02/07 16:15:13;;;;;;;4.72;3.33;;;4.10;99.90;;;;;;4968294;28;20212;-69
2024/02/07 16:17:40;;;;;;;1.73;1.65;;;4.00;99.90;;;;;;4962858;28;20219;-70
2024/02/07 16:20:08;;;;;;;3.13;1.80;;;4.00;99.90;;;;;;4969759;28;20220;-70
2024/02/07 16:22:35;;;;;;;1.50;1.50;;;3.90;99.90;;;;;;4967921;28;20287;-70
2024/02/07 16:25:03;;;;;;;2.22;2.10;;;3.90;99.90;;;;;;4965248;28;20221;-70
2024/02/07 16:27:30;;;;;;;2.38;2.28;;;3.80;99.90;;;;;;4967855;28;20289;-69
2024/02/07 16:29:58;;;;;;;3.53;2.40;;;3.80;99.90;;;;;;4968931;28;20219;-69
2024/02/07 16:32:25;;;;;;;4.55;2.35;;;3.70;99.90;;;;;;4965544;28;20240;-68
2024/02/07 16:34:52;;;;;;;3.08;2.75;;;3.70;99.90;;;;;;4966825;28;20212;-69
2024/02/07 16:37:19;;;;;;;4.78;1.02;;;3.60;99.90;;;;;;4967762;28;20262;-72
2024/02/07 16:39:48;;;;;;;9.48;2.58;;;3.60;99.90;;;;;;4970162;28;20211;-70
2024/02/07 16:42:16;;;;;;;17.50;1.40;;;3.60;99.90;;;;;;4970133;28;20545;-69
2024/02/07 16:44:43;;;;;;;1.40;1.30;;;3.60;99.90;;;;;;4969480;28;20224;-68
2024/02/07 16:47:10;;;;;;;2.22;1.25;;;3.50;99.90;;;;;;4965180;28;20212;-69
2024/02/07 16:49:36;;;;;;;3.80;1.73;;;3.50;99.90;;;;;;4969804;28;20212;-69
2024/02/07 16:52:03;;;;;;;1.45;1.05;;;3.50;99.90;;;;;;4966112;28;20228;-68
2024/02/07 16:54:30;;;;;;;10.90;2.25;;;3.40;99.90;;;;;;4968104;28;20226;-69
2024/02/07 16:56:57;;;;;;;2.38;1.33;;;3.40;99.90;;;;;;4969242;28;20320;-70
2024/02/07 16:59:25;;;;;;;5.03;1.85;;;3.40;99.90;;;;;;4969820;28;20212;-69
2024/02/07 17:01:53;;;;;;;2.80;1.58;;;3.30;99.90;;;;;;4969129;28;20239;-69
2024/02/07 17:04:19;;;;;;;3.90;2.53;;;3.30;99.90;;;;;;4966875;28;20244;-69
2024/02/07 17:06:47;;;;;;;6.50;2.60;;;3.30;99.90;;;;;;4967792;28;20216;-68
2024/02/07 17:09:13;;;;;;;20.92;8.70;;;3.30;99.90;;;;;;4967727;28;20209;-69
2024/02/07 17:11:40;;;;;;;8.80;4.03;;;3.20;99.90;;;;;;4967761;28;20228;-69
2024/02/07 17:14:07;;;;;;;4.55;3.00;;;3.20;99.90;;;;;;4965270;28;20519;-69
2024/02/07 17:16:35;;;;;;;5.32;2.00;;;3.20;99.90;;;;;;4967360;28;20579;-69
2024/02/07 17:19:01;;;;;;;1.23;1.23;;;3.20;99.90;;;;;;4969535;28;20223;-71
2024/02/07 17:21:28;;;;;;;1.55;1.45;;;3.20;99.90;;;;;;4970160;28;20232;-71
2024/02/07 17:23:57;;;;;;;2.33;2.22;;;3.10;99.90;;;;;;4970737;28;20232;-71
2024/02/07 17:26:23;;;;;;;2.85;1.73;;;3.10;99.90;;;;;;4973187;28;20210;-71
2024/02/07 17:28:52;;;;;;;3.05;1.63;;;3.10;99.90;;;;;;4971972;28;20233;-70
2024/02/07 17:31:21;;;;;;;1.33;1.25;;;3.10;99.90;;;;;;4972018;28;20287;-70
2024/02/07 17:33:49;;;;;;;2.42;1.90;;;3.00;99.90;;;;;;4972119;28;20359;-69
2024/02/07 17:36:15;;;;;;;2.17;1.75;;;3.00;99.90;;;;;;4973329;28;20273;-70
2024/02/07 17:38:43;;;;;;;1.00;1.00;;;3.00;99.90;;;;;;4972681;28;20674;-70
2024/02/07 17:41:11;;;;;;;3.63;1.25;;;2.90;99.90;;;;;;4973353;28;20231;-70
2024/02/07 17:43:37;;;;;;;1.23;0.77;;;2.90;99.90;;;;;;4970057;28;20228;-69
2024/02/07 17:46:04;;;;;;;3.03;1.48;;;2.90;99.90;;;;;;4973058;28;20218;-69
2024/02/07 17:48:31;;;;;;;2.97;1.85;;;2.90;99.90;;;;;;4971906;28;20215;-71
2024/02/07 17:50:59;;;;;;;3.08;1.63;;;2.80;99.90;;;;;;4972223;28;20233;-70
2024/02/07 17:53:26;;;;;;;22.25;2.95;;;2.80;99.90;;;;;;4972511;28;20225;-70
2024/02/07 17:55:53;;;;;;;2.35;2.17;;;2.80;99.90;;;;;;4964529;28;20223;-70
2024/02/07 17:58:19;;;;;;;4.47;2.20;;;2.80;99.90;;;;;;4970470;28;20204;-69
2024/02/07 18:00:46;;;;;;;6.47;2.33;;;2.70;99.90;;;;;;4972989;28;20239;-70
2024/02/07 18:03:13;;;;;;;3.85;3.10;;;2.70;99.90;;;;;;4971208;28;20215;-72
2024/02/07 18:05:39;;;;;;;8.50;3.47;;;2.70;99.90;;;;;;4971207;28;20234;-70
2024/02/07 18:08:08;;;;;;;5.15;3.58;;;2.60;99.90;;;;;;4971411;28;20215;-69
2024/02/07 18:10:35;;;;;;;3.35;2.30;;;2.60;99.90;;;;;;4970536;28;20595;-71
2024/02/07 18:13:01;;;;;;;3.92;3.63;;;2.60;99.90;;;;;;4967042;28;20313;-69